Heppner, Oregon
Current Conditions -  °F | °C
As of 11:53 PM on Wednesday 28 Jan 2015 (Local Time) from KHRI Reporting Station
Overcast Overcast  
Wind Chill: 33°   Ceiling: 1000
Heat Index: 38°   Visibility: 8mi
Dew Point: 35°   Wind: 6mph
Humidity: 89%   Direction: 30°NNE
Pressure: 30.47"   Gusts: NA
Location:  45.35°N, 119.56°W
Report Text: KHRI 290753Z AUTO 03005KT 8SM OVC010 03/02 A3047 RMK AO2 SLP321 T00330017 400441017
Loading
Personal Weather Stations






























Interactive Weather Map New forecast layout! Learn more

10-Day Weather Forecast

Advertisements
Track Severe Weather on mobile